Time;durP1;ratioP1;P1;durP2;ratioP2;P2;SDS_P1;SDS_P2;PMS_P1;PMS_P2;Temp;Humidity;BMP_temperature;BMP_pressure;BME280_temperature;BME280_humidity;BME280_pressure;Samples;Min_cycle;Max_cycle;Signal;HPM_P1;HPM_P2
2022/11/08 00:01:41;;;;;;;17.80;8.65;;;5.40;99.90;;;;;;5071116;28;20401;-76
2022/11/08 00:04:13;;;;;;;16.13;8.57;;;5.40;99.90;;;;;;5052767;28;20037;-76
2022/11/08 00:14:55;;;;;;;19.33;7.95;;;5.30;99.90;;;;;;5070755;28;20043;-76
2022/11/08 00:17:24;;;;;;;14.73;8.20;;;5.40;99.90;;;;;;5053362;28;20052;-76
2022/11/08 00:19:50;;;;;;;13.95;7.55;;;5.30;99.90;;;;;;5053453;28;20137;-76
2022/11/08 00:22:17;;;;;;;9.88;6.47;;;5.30;99.90;;;;;;5052822;28;20074;-77
2022/11/08 00:24:43;;;;;;;10.82;5.95;;;5.30;99.90;;;;;;5053318;28;20056;-76
2022/11/08 00:27:12;;;;;;;12.13;6.93;;;5.30;99.90;;;;;;5052462;28;20032;-76
2022/11/08 00:29:38;;;;;;;14.73;7.97;;;5.30;99.90;;;;;;5071484;28;20021;-76
2022/11/08 00:32:07;;;;;;;12.40;6.82;;;5.30;99.90;;;;;;5053574;28;20024;-77
2022/11/08 00:34:34;;;;;;;17.77;7.85;;;5.30;99.90;;;;;;5053608;28;20135;-76
2022/11/08 00:37:01;;;;;;;12.23;5.95;;;5.40;99.90;;;;;;5071900;28;20038;-76
2022/11/08 00:39:27;;;;;;;11.23;6.45;;;5.40;99.90;;;;;;5072598;28;20113;-77
2022/11/08 00:41:53;;;;;;;14.35;7.20;;;5.30;99.90;;;;;;5073858;28;20469;-77
2022/11/08 00:44:19;;;;;;;;;;;5.40;99.90;;;;;;5052789;28;20074;-76
2022/11/08 00:46:44;;;;;;;22.98;11.57;;;5.30;99.90;;;;;;5068967;28;20157;-76
2022/11/08 00:49:10;;;;;;;;;;;5.40;99.90;;;;;;5068196;28;20029;-76
2022/11/08 00:51:36;;;;;;;26.40;12.90;;;5.40;99.90;;;;;;5049900;28;19955;-77
2022/11/08 00:54:04;;;;;;;;;;;5.40;99.90;;;;;;5068609;28;20032;-76
2022/11/08 00:56:30;;;;;;;18.00;9.27;;;5.40;99.90;;;;;;5049986;28;19908;-77
2022/11/08 00:58:56;;;;;;;;;;;5.50;99.90;;;;;;5068433;28;20086;-77
2022/11/08 01:01:22;;;;;;;20.38;11.00;;;5.50;99.90;;;;;;5050491;28;20345;-76
2022/11/08 01:03:48;;;;;;;;;;;5.50;99.90;;;;;;5068308;28;20045;-77
2022/11/08 01:06:16;;;;;;;18.20;10.27;;;5.50;99.90;;;;;;5050112;28;20338;-76
2022/11/08 01:08:42;;;;;;;23.52;11.65;;;5.50;99.90;;;;;;5050319;28;20075;-76
2022/11/08 01:11:10;;;;;;;;;;;5.60;99.90;;;;;;5067883;28;20024;-76
2022/11/08 01:13:35;;;;;;;20.10;10.73;;;5.60;99.90;;;;;;5049753;28;19908;-75
2022/11/08 01:16:05;;;;;;;;;;;5.60;99.90;;;;;;5050504;28;20021;-77
2022/11/08 01:18:31;;;;;;;17.75;8.10;;;5.60;99.90;;;;;;5049678;28;19987;-76
2022/11/08 01:20:56;;;;;;;;;;;5.60;99.90;;;;;;5050081;28;20092;-77
2022/11/08 01:23:22;;;;;;;13.55;6.13;;;5.70;99.90;;;;;;5068111;28;20372;-77
2022/11/08 01:25:47;;;;;;;;;;;5.70;99.90;;;;;;5068669;28;20105;-77
2022/11/08 01:28:13;;;;;;;11.55;6.07;;;5.70;99.90;;;;;;5068729;28;19943;-76
2022/11/08 01:30:40;;;;;;;;;;;5.70;99.90;;;;;;5050668;28;20086;-76
2022/11/08 01:33:06;;;;;;;13.05;6.90;;;5.70;99.90;;;;;;5050841;28;19961;-76
2022/11/08 01:35:32;;;;;;;;;;;5.70;99.90;;;;;;5068019;28;20036;-76
2022/11/08 01:38:01;;;;;;;13.17;6.00;;;5.70;99.90;;;;;;5050407;28;19916;-77
2022/11/08 01:40:27;;;;;;;11.07;5.78;;;5.70;99.90;;;;;;5050316;28;20514;-76
2022/11/08 01:42:53;;;;;;;8.63;4.68;;;5.70;99.90;;;;;;5067824;28;20033;-76
2022/11/08 01:45:38;;;;;;;;;;;5.70;99.90;;;;;;5050258;28;20093;-76
2022/11/08 01:48:03;;;;;;;10.52;5.15;;;5.60;99.90;;;;;;5050372;28;20331;-76
2022/11/08 01:50:29;;;;;;;;;;;5.60;99.90;;;;;;5067188;28;20031;-76
2022/11/08 01:52:55;;;;;;;9.52;4.82;;;5.60;99.90;;;;;;5049817;28;20419;-76
2022/11/08 01:55:23;;;;;;;;;;;5.60;99.90;;;;;;5068022;28;20048;-76
2022/11/08 01:58:01;;;;;;;14.70;4.32;;;5.50;99.90;;;;;;5067617;28;19935;-77
2022/11/08 02:00:26;;;;;;;9.20;5.15;;;5.60;99.90;;;;;;5049117;28;20052;-76
2022/11/08 02:02:59;;;;;;;;;;;5.50;99.90;;;;;;5067456;28;20083;-76
2022/11/08 02:05:26;;;;;;;12.15;5.75;;;5.60;99.90;;;;;;5049929;28;20010;-76
2022/11/08 02:08:10;;;;;;;8.43;4.95;;;5.60;99.90;;;;;;5067291;28;20020;-77
2022/11/08 02:10:41;;;;;;;8.65;4.72;;;5.60;99.90;;;;;;5050160;28;20114;-76
2022/11/08 02:13:14;;;;;;;20.70;7.50;;;5.60;99.90;;;;;;5050085;28;20036;-76
2022/11/08 02:15:40;;;;;;;7.18;4.63;;;5.60;99.90;;;;;;5050219;28;20032;-76
2022/11/08 02:18:05;;;;;;;;;;;5.60;99.90;;;;;;5050195;28;20436;-76
2022/11/08 02:20:32;;;;;;;8.90;4.75;;;5.60;99.90;;;;;;5067830;28;19923;-76
2022/11/08 02:23:03;;;;;;;10.10;5.25;;;5.60;99.90;;;;;;5050109;28;20012;-74
2022/11/08 02:25:29;;;;;;;8.15;4.53;;;5.50;99.90;;;;;;5067784;28;20060;-76
2022/11/08 02:27:55;;;;;;;;;;;5.50;99.90;;;;;;5069040;28;20028;-77
2022/11/08 02:30:20;;;;;;;8.32;4.35;;;5.50;99.90;;;;;;5068640;28;20422;-76
2022/11/08 02:32:46;;;;;;;;;;;5.50;99.90;;;;;;5050923;28;20052;-77
2022/11/08 02:35:16;;;;;;;10.38;5.03;;;5.50;99.90;;;;;;5050410;28;19908;-76
2022/11/08 02:37:42;;;;;;;8.27;3.90;;;5.50;99.90;;;;;;5049663;28;20025;-76
2022/11/08 02:40:08;;;;;;;9.82;4.38;;;5.40;99.90;;;;;;5050336;28;20548;-77
2022/11/08 02:42:37;;;;;;;9.25;4.53;;;5.40;99.90;;;;;;5050993;28;20051;-76
2022/11/08 02:45:04;;;;;;;8.98;5.68;;;5.30;99.90;;;;;;5050906;28;20040;-76
2022/11/08 02:47:29;;;;;;;8.40;4.75;;;5.30;99.90;;;;;;5051303;28;20028;-76
2022/11/08 02:49:55;;;;;;;;;;;5.30;99.90;;;;;;5069295;28;20685;-76
2022/11/08 02:52:20;;;;;;;13.00;5.35;;;5.30;99.90;;;;;;5051627;28;19915;-76
2022/11/08 02:54:46;;;;;;;;;;;5.30;99.90;;;;;;5070409;28;20035;-77
2022/11/08 02:57:11;;;;;;;9.38;4.88;;;5.30;99.90;;;;;;5051929;28;19914;-76
2022/11/08 02:59:37;;;;;;;;;;;5.30;99.90;;;;;;5053315;28;20040;-76
2022/11/08 03:02:03;;;;;;;13.52;5.32;;;5.40;99.90;;;;;;5071712;28;20003;-77
2022/11/08 03:04:29;;;;;;;10.07;4.32;;;5.30;99.90;;;;;;5067357;28;20033;-76
2022/11/08 03:06:55;;;;;;;;;;;5.30;99.90;;;;;;5048948;28;20119;-76
2022/11/08 03:09:20;;;;;;;13.80;6.13;;;5.30;99.90;;;;;;5066365;28;19908;-76
2022/11/08 03:11:46;;;;;;;;;;;5.30;99.90;;;;;;5047990;28;20814;-76
2022/11/08 03:14:11;;;;;;;11.82;5.47;;;5.30;99.90;;;;;;5070309;28;19909;-77
2022/11/08 03:16:37;;;;;;;;;;;5.30;99.90;;;;;;5051892;28;20032;-76
2022/11/08 03:19:03;;;;;;;18.67;7.35;;;5.30;99.90;;;;;;5051948;28;19908;-76
2022/11/08 03:21:28;;;;;;;;;;;5.20;99.90;;;;;;5052120;28;20056;-76
2022/11/08 03:23:54;;;;;;;19.55;8.30;;;5.20;99.90;;;;;;5051797;28;19920;-76
2022/11/08 03:26:19;;;;;;;;;;;5.30;99.90;;;;;;5051877;28;20493;-76
2022/11/08 03:28:45;;;;;;;21.52;7.38;;;5.30;99.90;;;;;;5051889;28;19908;-76
2022/11/08 03:31:10;;;;;;;;;;;5.20;99.90;;;;;;5069769;28;20099;-76
2022/11/08 03:33:36;;;;;;;21.05;9.32;;;5.20;99.90;;;;;;5051444;28;19965;-77
2022/11/08 03:36:01;;;;;;;;;;;5.10;99.90;;;;;;5052060;28;20467;-76
2022/11/08 03:38:27;;;;;;;14.82;8.43;;;5.10;99.90;;;;;;5070211;28;20414;-77
2022/11/08 03:40:52;;;;;;;;;;;5.00;99.90;;;;;;5051845;28;20442;-76
2022/11/08 03:43:18;;;;;;;20.90;9.75;;;5.10;99.90;;;;;;5051665;28;19951;-76
2022/11/08 03:45:44;;;;;;;;;;;5.00;99.90;;;;;;5069232;28;20072;-76
2022/11/08 03:48:10;;;;;;;17.80;10.57;;;5.10;99.90;;;;;;5069263;28;20445;-76
2022/11/08 03:50:35;;;;;;;;;;;5.00;99.90;;;;;;5069914;28;20024;-76
2022/11/08 03:53:01;;;;;;;28.63;12.05;;;5.00;99.90;;;;;;5051624;28;20288;-76
2022/11/08 03:55:27;;;;;;;;;;;5.00;99.90;;;;;;5051634;28;20047;-76
2022/11/08 03:57:53;;;;;;;22.92;10.98;;;5.00;99.90;;;;;;5069565;28;19915;-76
2022/11/08 04:00:22;;;;;;;19.27;10.10;;;5.00;99.90;;;;;;5068843;28;20020;-76
2022/11/08 04:02:48;;;;;;;20.70;10.40;;;5.00;99.90;;;;;;5051405;28;20031;-76
2022/11/08 04:05:14;;;;;;;;;;;5.00;99.90;;;;;;5050781;28;20115;-76
2022/11/08 04:07:40;;;;;;;20.08;10.10;;;5.00;99.90;;;;;;5069535;28;19909;-76
2022/11/08 04:10:07;;;;;;;;;;;4.90;99.90;;;;;;5051246;28;20047;-76
2022/11/08 04:15:20;;;;;;;16.67;8.70;;;5.00;99.90;;;;;;5069245;28;20028;-77
2022/11/08 04:23:20;;;;;;;24.80;11.07;;;5.00;99.90;;;;;;5069018;28;20039;-76
2022/11/08 04:25:52;;;;;;;;;;;5.10;99.90;;;;;;5068171;28;20523;-75
2022/11/08 04:28:17;;;;;;;18.73;9.48;;;5.10;99.90;;;;;;5068628;28;19908;-76
2022/11/08 04:30:43;;;;;;;;;;;5.10;99.90;;;;;;5069140;28;20059;-77
2022/11/08 04:33:08;;;;;;;19.70;10.00;;;5.10;99.90;;;;;;5068563;28;20400;-76
2022/11/08 04:35:34;;;;;;;;;;;5.10;99.90;;;;;;5051413;28;20040;-76
2022/11/08 04:38:02;;;;;;;21.92;11.35;;;5.10;99.90;;;;;;5051404;28;19909;-76
2022/11/08 04:40:29;;;;;;;23.25;10.35;;;5.10;99.90;;;;;;5050630;28;20029;-75
2022/11/08 04:42:55;;;;;;;19.98;10.48;;;5.20;99.90;;;;;;5068852;28;20024;-76
2022/11/08 04:45:21;;;;;;;;;;;5.20;99.90;;;;;;5069600;28;20052;-76
2022/11/08 04:47:47;;;;;;;24.58;9.68;;;5.30;99.90;;;;;;5068872;28;19916;-76
2022/11/08 04:50:13;;;;;;;18.35;9.07;;;5.30;99.90;;;;;;5069521;28;20090;-75
2022/11/08 04:52:40;;;;;;;21.42;9.15;;;5.30;99.90;;;;;;5051560;28;20405;-77
2022/11/08 04:55:06;;;;;;;21.55;11.05;;;5.30;99.90;;;;;;5069984;28;20043;-76
2022/11/08 04:57:31;;;;;;;27.17;10.98;;;5.30;99.90;;;;;;5051826;28;20123;-76
2022/11/08 04:59:57;;;;;;;;;;;5.40;99.90;;;;;;5069927;28;20111;-76
2022/11/08 05:02:23;;;;;;;19.92;9.20;;;5.40;99.90;;;;;;5051924;28;19908;-76
2022/11/08 05:04:48;;;;;;;;;;;5.50;99.90;;;;;;5070259;28;21032;-76
2022/11/08 05:07:14;;;;;;;19.52;9.35;;;5.50;99.90;;;;;;5070894;28;19916;-76
2022/11/08 05:09:40;;;;;;;16.70;8.88;;;5.50;99.90;;;;;;5070065;28;20031;-77
2022/11/08 05:12:05;;;;;;;;;;;5.50;99.90;;;;;;5071877;28;20040;-76
2022/11/08 05:14:31;;;;;;;24.48;9.93;;;5.50;99.90;;;;;;5071042;28;19904;-76
2022/11/08 05:16:56;;;;;;;;;;;5.50;99.90;;;;;;5053675;28;20032;-75
2022/11/08 05:24:53;;;;;;;26.75;13.82;;;5.60;99.90;;;;;;5067909;28;20542;-76
2022/11/08 05:27:19;;;;;;;;;;;5.60;99.90;;;;;;5050307;28;20024;-76
2022/11/08 05:29:44;;;;;;;19.48;10.20;;;5.60;99.90;;;;;;5049750;28;19913;-76
2022/11/08 05:32:10;;;;;;;;;;;5.70;99.90;;;;;;5049825;28;20029;-77
2022/11/08 05:34:35;;;;;;;16.23;8.02;;;5.70;99.90;;;;;;5050643;28;20007;-77
2022/11/08 05:37:01;;;;;;;;;;;5.60;99.90;;;;;;5050227;28;20382;-78
2022/11/08 05:39:27;;;;;;;16.00;7.68;;;5.60;99.90;;;;;;5050677;28;19908;-76
2022/11/08 05:41:52;;;;;;;;;;;5.60;99.90;;;;;;5050819;28;20051;-77
2022/11/08 05:44:18;;;;;;;18.33;8.10;;;5.60;99.90;;;;;;5050186;28;19913;-77
2022/11/08 05:46:43;;;;;;;;;;;5.50;99.90;;;;;;5050354;28;20029;-78
2022/11/08 05:49:10;;;;;;;15.55;8.10;;;5.50;99.90;;;;;;5067706;28;20354;-77
2022/11/08 05:51:36;;;;;;;17.75;8.20;;;5.50;99.90;;;;;;5069059;28;20054;-76
2022/11/08 05:54:01;;;;;;;;;;;5.50;99.90;;;;;;5068661;28;20032;-77
2022/11/08 05:56:27;;;;;;;16.13;8.63;;;5.50;99.90;;;;;;5067541;28;19908;-77
2022/11/08 05:58:52;;;;;;;;;;;5.40;99.90;;;;;;5050659;28;20024;-77
2022/11/08 06:01:19;;;;;;;17.13;9.18;;;5.40;99.90;;;;;;5067950;28;19908;-77
2022/11/08 06:03:46;;;;;;;21.52;10.18;;;5.40;99.90;;;;;;5050414;28;20040;-76
2022/11/08 06:06:15;;;;;;;24.83;11.57;;;5.30;99.90;;;;;;5068236;28;20103;-76
2022/11/08 06:08:42;;;;;;;19.13;10.98;;;5.30;99.90;;;;;;5068303;28;20032;-77
2022/11/08 06:11:11;;;;;;;23.77;11.25;;;5.40;99.90;;;;;;5067945;28;20029;-76
2022/11/08 06:13:38;;;;;;;26.83;12.15;;;5.40;99.90;;;;;;5049949;28;20477;-77
2022/11/08 06:16:06;;;;;;;20.33;11.18;;;5.30;99.90;;;;;;5050377;28;20021;-76
2022/11/08 06:18:32;;;;;;;21.17;10.60;;;5.50;99.90;;;;;;5068846;28;20028;-76
2022/11/08 06:21:00;;;;;;;14.05;8.52;;;5.70;99.90;;;;;;5070906;28;20028;-76
2022/11/08 06:23:26;;;;;;;27.15;13.32;;;5.90;99.90;;;;;;5052330;28;20032;-76
2022/11/08 06:25:51;;;;;;;77.22;44.45;;;6.20;99.90;;;;;;5071023;28;20111;-77
2022/11/08 06:28:17;;;;;;;;;;;6.50;99.90;;;;;;5054283;28;20067;-77
2022/11/08 06:30:43;;;;;;;32.22;19.27;;;6.80;99.90;;;;;;5071594;28;19908;-76
2022/11/08 06:33:08;;;;;;;;;;;7.20;99.90;;;;;;5054066;28;20041;-75
2022/11/08 06:35:35;;;;;;;15.77;9.00;;;7.40;99.90;;;;;;5052561;28;19912;-76
2022/11/08 06:38:01;;;;;;;21.52;12.30;;;7.70;99.90;;;;;;5051575;28;20119;-77
2022/11/08 06:40:27;;;;;;;;;;;7.90;99.90;;;;;;5068262;28;20635;-77
2022/11/08 06:42:52;;;;;;;31.20;16.35;;;8.30;99.90;;;;;;5066656;28;20238;-77
2022/11/08 06:45:18;;;;;;;;;;;9.10;99.90;;;;;;5049355;28;20455;-77
2022/11/08 06:47:44;;;;;;;21.25;11.45;;;9.60;99.90;;;;;;5047165;28;19943;-77
2022/11/08 06:50:09;;;;;;;;;;;10.10;99.90;;;;;;5066178;28;20033;-78
2022/11/08 06:52:35;;;;;;;14.45;8.25;;;10.50;99.90;;;;;;5065790;28;19904;-76
2022/11/08 06:55:00;;;;;;;;;;;10.80;99.90;;;;;;5066303;28;20033;-77
2022/11/08 06:57:26;;;;;;;16.52;7.80;;;11.00;99.90;;;;;;5048336;28;20352;-77
2022/11/08 06:59:51;;;;;;;;;;;11.00;99.90;;;;;;5047890;28;20037;-77
2022/11/08 07:02:17;;;;;;;12.25;7.15;;;10.90;99.90;;;;;;5065788;28;20383;-77
2022/11/08 07:04:42;;;;;;;;;;;10.90;99.90;;;;;;5048631;28;20040;-77
2022/11/08 07:07:08;;;;;;;22.65;11.98;;;10.90;99.90;;;;;;5065480;28;20430;-77
2022/11/08 07:09:34;;;;;;;;;;;10.80;99.90;;;;;;5065987;28;20032;-78
2022/11/08 07:11:59;;;;;;;36.72;20.90;;;10.90;99.90;;;;;;5047617;28;19958;-77
2022/11/08 07:14:25;;;;;;;;;;;10.90;99.90;;;;;;5065716;28;20064;-77
2022/11/08 07:16:50;;;;;;;29.70;15.10;;;11.00;99.90;;;;;;5065300;28;19909;-77
2022/11/08 07:19:16;;;;;;;;;;;11.10;99.90;;;;;;5066350;28;20099;-77
2022/11/08 07:21:41;;;;;;;21.23;13.10;;;11.20;99.90;;;;;;5047787;28;20447;-78
2022/11/08 07:24:07;;;;;;;;;;;11.20;99.90;;;;;;5047650;28;20045;-76
2022/11/08 07:26:32;;;;;;;21.27;12.07;;;11.20;99.90;;;;;;5065553;28;20367;-77
2022/11/08 07:28:58;;;;;;;;;;;11.30;99.90;;;;;;5047597;28;20016;-78
2022/11/08 07:31:24;;;;;;;13.63;8.32;;;11.40;99.90;;;;;;5065411;28;20569;-78
2022/11/08 07:33:49;;;;;;;;;;;11.50;99.90;;;;;;5047758;28;20028;-77
2022/11/08 07:36:15;;;;;;;14.30;8.18;;;11.70;99.90;;;;;;5047966;28;19916;-77
2022/11/08 07:38:41;;;;;;;;;;;11.90;99.90;;;;;;5048476;28;20024;-75
2022/11/08 07:41:07;;;;;;;11.90;7.60;;;11.90;99.90;;;;;;5066165;28;19905;-76
2022/11/08 07:43:34;;;;;;;13.55;8.57;;;12.10;99.90;;;;;;5047655;28;20254;-75
2022/11/08 07:46:01;;;;;;;15.43;8.00;;;12.40;99.90;;;;;;5065199;28;20033;-78
2022/11/08 07:48:28;;;;;;;10.98;7.68;;;12.70;99.90;;;;;;5064998;28;20507;-74
2022/11/08 07:50:54;;;;;;;11.43;8.05;;;12.70;99.90;;;;;;5047932;28;20031;-77
2022/11/08 07:53:19;;;;;;;;;;;12.70;99.90;;;;;;5047738;28;20029;-75
2022/11/08 07:55:46;;;;;;;13.05;7.55;;;12.80;99.90;;;;;;5065490;28;20392;-76
2022/11/08 07:58:13;;;;;;;14.85;7.22;;;12.90;99.90;;;;;;5047470;28;20039;-76
2022/11/08 08:00:41;;;;;;;12.50;6.90;;;13.10;99.90;;;;;;5067608;28;20790;-76
2022/11/08 08:03:09;;;;;;;18.45;7.50;;;13.50;99.90;;;;;;5051265;28;20106;-76
2022/11/08 08:05:40;;;;;;;9.20;5.53;;;13.70;99.90;;;;;;5050916;28;20036;-75
2022/11/08 08:08:07;;;;;;;10.52;6.82;;;13.80;99.90;;;;;;5050815;28;20107;-76
2022/11/08 08:10:35;;;;;;;12.90;7.38;;;14.00;99.90;;;;;;5050862;28;20480;-76
2022/11/08 08:13:01;;;;;;;11.95;7.20;;;14.20;99.90;;;;;;5050663;28;20415;-78
2022/11/08 08:15:26;;;;;;;9.95;6.63;;;14.40;99.90;;;;;;5050661;28;20033;-78
2022/11/08 08:17:52;;;;;;;8.45;5.78;;;14.70;99.90;;;;;;5068197;28;20032;-78
2022/11/08 08:20:18;;;;;;;10.80;7.38;;;14.90;99.90;;;;;;5050118;28;20036;-77
2022/11/08 08:22:45;;;;;;;12.68;6.32;;;15.30;99.90;;;;;;5068615;28;20020;-78
2022/11/08 08:25:11;;;;;;;12.38;6.68;;;15.50;99.90;;;;;;5067985;28;20532;-78
2022/11/08 08:27:37;;;;;;;11.00;6.80;;;15.80;99.90;;;;;;5068549;28;20025;-78
2022/11/08 08:30:03;;;;;;;10.70;6.28;;;16.10;99.90;;;;;;5049845;28;20074;-75
2022/11/08 08:32:29;;;;;;;12.73;7.20;;;16.40;99.90;;;;;;5050282;28;20020;-75
2022/11/08 08:34:55;;;;;;;11.20;6.70;;;16.50;99.90;;;;;;5068159;28;20523;-75
2022/11/08 08:37:20;;;;;;;8.00;6.07;;;16.50;99.90;;;;;;5050092;28;20024;-75
2022/11/08 08:39:46;;;;;;;9.32;6.65;;;16.60;99.90;;;;;;5050257;28;20123;-74
2022/11/08 08:42:12;;;;;;;8.65;6.07;;;16.90;99.90;;;;;;5050079;28;20028;-76
2022/11/08 08:44:37;;;;;;;13.80;7.28;;;17.20;99.90;;;;;;5067578;28;20532;-75
2022/11/08 08:47:03;;;;;;;9.68;6.60;;;17.50;99.90;;;;;;5067395;28;20032;-76
2022/11/08 08:49:28;;;;;;;13.15;8.30;;;17.80;99.90;;;;;;5068257;28;20028;-76
2022/11/08 08:51:54;;;;;;;16.50;9.20;;;18.00;99.90;;;;;;5049934;28;20240;-75
2022/11/08 08:54:20;;;;;;;16.00;10.98;;;18.10;99.90;;;;;;5067760;28;20064;-76
2022/11/08 08:56:45;;;;;;;24.80;12.23;;;18.40;99.90;;;;;;5067930;28;20023;-75
2022/11/08 08:59:12;;;;;;;23.52;11.90;;;18.40;99.90;;;;;;5049957;28;20020;-75
2022/11/08 09:01:38;;;;;;;17.40;10.93;;;18.30;99.90;;;;;;5049685;28;20040;-75
2022/11/08 09:04:04;;;;;;;15.70;11.30;;;18.30;99.80;;;;;;5067927;28;20363;-78
2022/11/08 09:06:29;;;;;;;13.43;10.45;;;18.10;99.90;;;;;;5049481;28;20036;-75
2022/11/08 09:08:55;;;;;;;14.07;9.88;;;17.60;99.90;;;;;;5067227;28;20128;-78
2022/11/08 09:11:20;;;;;;;13.82;10.55;;;17.20;99.90;;;;;;5049595;28;20028;-76
2022/11/08 09:13:46;;;;;;;15.60;10.23;;;16.90;99.90;;;;;;5067810;28;20749;-76
2022/11/08 09:16:13;;;;;;;23.30;10.48;;;16.40;99.90;;;;;;5049721;28;20028;-75
2022/11/08 09:18:38;;;;;;;17.42;11.45;;;15.90;99.90;;;;;;5067122;28;20020;-76
2022/11/08 09:21:04;;;;;;;16.98;11.13;;;15.40;99.90;;;;;;5049716;28;20028;-78
2022/11/08 09:23:30;;;;;;;16.83;11.43;;;15.00;99.90;;;;;;5049127;28;20055;-78
2022/11/08 09:25:57;;;;;;;17.80;12.00;;;14.80;99.90;;;;;;5030828;28;20053;-78
2022/11/08 09:28:23;;;;;;;16.23;11.30;;;14.60;99.90;;;;;;5046874;28;20752;-78
2022/11/08 09:30:48;;;;;;;20.73;11.25;;;14.30;99.90;;;;;;5046420;28;20556;-78
2022/11/08 09:33:14;;;;;;;22.67;13.02;;;14.00;99.90;;;;;;5047446;28;20025;-75
2022/11/08 09:35:39;;;;;;;20.88;14.57;;;13.80;99.90;;;;;;5046933;28;20021;-75
2022/11/08 09:38:06;;;;;;;19.83;13.88;;;13.70;99.90;;;;;;5028945;28;20044;-75
2022/11/08 09:40:45;;;;;;;21.58;14.75;;;13.50;99.90;;;;;;5028770;28;20045;-76
2022/11/08 09:43:29;;;;;;;20.88;14.82;;;13.50;99.90;;;;;;5046873;28;20131;-75
2022/11/08 09:45:56;;;;;;;23.20;15.55;;;13.30;99.90;;;;;;5046214;28;20049;-75
2022/11/08 09:48:35;;;;;;;26.83;16.25;;;13.20;99.90;;;;;;5046944;28;20393;-74
2022/11/08 09:51:22;;;;;;;25.63;15.95;;;13.00;99.90;;;;;;5029145;28;20032;-75
2022/11/08 09:53:50;;;;;;;29.02;15.57;;;13.00;99.90;;;;;;5047077;28;20610;-75
2022/11/08 09:56:36;;;;;;;23.13;15.65;;;12.80;99.90;;;;;;5046875;28;20227;-75
2022/11/08 09:59:14;;;;;;;21.83;15.25;;;12.70;99.90;;;;;;5046830;28;20037;-76
2022/11/08 10:01:41;;;;;;;27.15;17.60;;;12.60;99.90;;;;;;5029135;28;20021;-75
2022/11/08 10:04:15;;;;;;;27.00;18.27;;;12.60;99.90;;;;;;5046439;28;20565;-75
2022/11/08 10:07:12;;;;;;;31.75;18.83;;;12.50;99.90;;;;;;5046271;28;20032;-76
2022/11/08 10:09:43;;;;;;;27.42;18.77;;;12.30;99.90;;;;;;5025420;28;20029;-78
2022/11/08 10:12:24;;;;;;;55.22;37.85;;;12.20;99.90;;;;;;5028316;28;20115;-76
2022/11/08 10:15:06;;;;;;;35.05;22.67;;;12.20;99.90;;;;;;5028192;28;20399;-76
2022/11/08 10:17:53;;;;;;;27.98;19.48;;;12.30;99.90;;;;;;5046726;28;20056;-76
2022/11/08 10:20:30;;;;;;;25.90;18.48;;;12.40;99.90;;;;;;5028751;28;20095;-74
2022/11/08 10:23:20;;;;;;;27.40;18.27;;;12.40;99.90;;;;;;5027942;28;20029;-76
2022/11/08 10:25:52;;;;;;;26.67;20.02;;;12.50;99.90;;;;;;5063115;28;20048;-77
2022/11/08 10:28:34;;;;;;;24.65;18.38;;;12.40;99.90;;;;;;5047780;28;20027;-77
2022/11/08 10:31:01;;;;;;;26.10;19.52;;;12.50;99.90;;;;;;5047734;28;20437;-76
2022/11/08 10:33:34;;;;;;;28.83;20.65;;;12.40;99.90;;;;;;5066399;28;20020;-77
2022/11/08 10:36:06;;;;;;;35.10;24.33;;;12.40;99.90;;;;;;5066468;28;20055;-77
2022/11/08 10:38:55;;;;;;;30.70;21.45;;;12.30;99.90;;;;;;5065615;28;20024;-76
2022/11/08 10:41:42;;;;;;;28.90;20.80;;;12.20;99.90;;;;;;5045926;28;20497;-76
2022/11/08 10:44:18;;;;;;;28.83;20.17;;;12.30;99.90;;;;;;5065602;28;20112;-76
2022/11/08 10:46:56;;;;;;;32.63;21.33;;;12.20;99.90;;;;;;5065923;28;20032;-76
2022/11/08 10:49:37;;;;;;;28.48;21.15;;;12.00;99.90;;;;;;5048571;28;20047;-78
2022/11/08 10:52:19;;;;;;;29.15;22.35;;;11.90;99.90;;;;;;5066189;28;20085;-77
2022/11/08 10:54:44;;;;;;;30.77;22.85;;;11.90;99.90;;;;;;5066331;28;20072;-76
2022/11/08 10:57:28;;;;;;;;;;;11.90;99.90;;;;;;5066560;28;20115;-76
2022/11/08 10:59:55;;;;;;;27.70;20.38;;;11.80;99.90;;;;;;5047684;28;20281;-76
2022/11/08 11:02:23;;;;;;;31.80;21.40;;;11.80;99.90;;;;;;5065687;28;20024;-77
2022/11/08 11:04:50;;;;;;;29.83;20.55;;;11.80;99.90;;;;;;5047854;28;20062;-76
2022/11/08 11:07:34;;;;;;;36.92;25.05;;;11.80;99.90;;;;;;5065433;28;20024;-79
2022/11/08 11:10:22;;;;;;;31.15;22.27;;;11.90;99.90;;;;;;5047687;28;20039;-75
2022/11/08 11:12:50;;;;;;;30.08;22.92;;;11.90;99.90;;;;;;5048256;28;20019;-78
2022/11/08 11:15:16;;;;;;;30.95;21.58;;;11.80;99.90;;;;;;5065240;28;20024;-78
2022/11/08 11:17:45;;;;;;;29.50;21.90;;;11.90;99.90;;;;;;5047544;28;20043;-78
2022/11/08 11:20:23;;;;;;;29.13;21.65;;;11.90;99.90;;;;;;5065555;28;20020;-78
2022/11/08 11:22:50;;;;;;;34.08;22.10;;;11.90;99.90;;;;;;5065192;28;20039;-75
2022/11/08 11:25:22;;;;;;;31.17;21.23;;;12.00;99.90;;;;;;5036890;28;20063;-79
2022/11/08 11:28:12;;;;;;;25.73;18.58;;;12.00;99.90;;;;;;5027542;28;20052;-79
2022/11/08 11:30:40;;;;;;;30.13;20.20;;;12.00;99.90;;;;;;5045134;28;20043;-78
2022/11/08 11:33:22;;;;;;;25.52;19.40;;;11.90;99.90;;;;;;5046087;28;20060;-77
2022/11/08 11:35:53;;;;;;;26.48;19.67;;;11.80;99.90;;;;;;5032710;28;20064;-78
2022/11/08 11:38:43;;;;;;;27.80;19.20;;;11.70;99.90;;;;;;5049330;28;20025;-78
2022/11/08 11:41:17;;;;;;;28.88;20.13;;;11.60;99.90;;;;;;4981108;28;20083;-78
2022/11/08 11:44:10;;;;;;;30.02;21.33;;;11.60;99.90;;;;;;5048704;28;20021;-79
2022/11/08 11:47:03;;;;;;;33.58;21.27;;;11.70;99.90;;;;;;5030929;28;20036;-78
2022/11/08 11:49:30;;;;;;;27.83;21.00;;;11.60;99.90;;;;;;5050164;28;20048;-77
2022/11/08 11:51:56;;;;;;;28.23;20.45;;;11.60;99.90;;;;;;5031508;28;20420;-75
2022/11/08 11:54:27;;;;;;;30.70;21.02;;;11.60;99.90;;;;;;5031056;28;20020;-78
2022/11/08 11:57:12;;;;;;;34.33;21.33;;;11.50;99.90;;;;;;5031399;28;20032;-78
2022/11/08 11:59:37;;;;;;;28.90;20.35;;;11.60;99.90;;;;;;5031190;28;20033;-79
2022/11/08 12:02:22;;;;;;;;;;;11.50;99.90;;;;;;5031245;28;20485;-78
2022/11/08 12:05:06;;;;;;;51.67;33.78;;;11.50;99.90;;;;;;5048672;28;20522;-78
2022/11/08 12:07:37;;;;;;;72.00;45.53;;;11.50;99.90;;;;;;5048943;28;20017;-78
2022/11/08 12:10:23;;;;;;;57.83;34.10;;;11.50;99.90;;;;;;5048901;28;20416;-77
2022/11/08 12:12:57;;;;;;;39.00;24.38;;;11.50;99.90;;;;;;5029016;28;20021;-77
2022/11/08 12:15:41;;;;;;;38.03;26.27;;;11.50;99.90;;;;;;5034154;28;20477;-76
2022/11/08 12:18:37;;;;;;;32.60;23.33;;;11.50;99.90;;;;;;5030046;28;20056;-75
2022/11/08 12:21:25;;;;;;;37.42;24.17;;;11.50;99.90;;;;;;5048996;28;20487;-78
2022/11/08 12:24:03;;;;;;;30.80;23.23;;;11.40;99.90;;;;;;5030846;28;20520;-78
2022/11/08 12:26:41;;;;;;;34.08;24.08;;;11.40;99.90;;;;;;5048353;28;20095;-78
2022/11/08 12:29:20;;;;;;;38.55;24.60;;;11.40;99.90;;;;;;5030031;28;20033;-78
2022/11/08 12:31:58;;;;;;;35.28;25.08;;;11.50;99.90;;;;;;5048362;28;20041;-77
2022/11/08 12:34:36;;;;;;;37.28;26.85;;;11.40;99.90;;;;;;5041680;28;20859;-77
2022/11/08 12:37:19;;;;;;;46.22;25.92;;;11.40;99.90;;;;;;5027907;28;20473;-77
2022/11/08 12:40:06;;;;;;;34.30;25.05;;;11.40;99.90;;;;;;5009735;28;20513;-77
2022/11/08 12:42:55;;;;;;;66.93;38.40;;;11.40;99.90;;;;;;5009421;28;20033;-78
2022/11/08 12:45:24;;;;;;;43.85;27.52;;;11.30;99.90;;;;;;5009321;28;20335;-77
2022/11/08 12:47:53;;;;;;;44.83;28.70;;;11.40;99.90;;;;;;5009768;28;20053;-77
2022/11/08 12:50:37;;;;;;;35.72;27.27;;;11.40;99.90;;;;;;5009478;28;20036;-76
2022/11/08 12:53:12;;;;;;;43.72;24.35;;;11.40;99.90;;;;;;5028312;28;20036;-77
2022/11/08 12:55:41;;;;;;;40.50;28.48;;;11.40;99.90;;;;;;5009921;28;20052;-77
2022/11/08 12:58:30;;;;;;;39.50;26.52;;;11.40;99.90;;;;;;5010010;28;20033;-76
2022/11/08 13:01:01;;;;;;;38.97;25.90;;;11.50;99.90;;;;;;5009965;28;20041;-77
2022/11/08 13:03:34;;;;;;;41.83;28.63;;;11.50;99.90;;;;;;5027862;28;20018;-78
2022/11/08 13:06:23;;;;;;;40.55;27.33;;;11.50;99.90;;;;;;5027849;28;20120;-78
2022/11/08 13:08:59;;;;;;;37.17;26.38;;;11.50;99.90;;;;;;5027919;28;20277;-77
2022/11/08 13:12:04;;;;;;;40.97;26.02;;;11.50;99.90;;;;;;5009681;28;20519;-77
2022/11/08 13:14:31;;;;;;;38.97;27.25;;;11.50;99.90;;;;;;4996777;28;20409;-77
2022/11/08 13:17:11;;;;;;;39.45;26.33;;;11.40;99.90;;;;;;5027667;28;20025;-77
2022/11/08 13:19:46;;;;;;;38.50;26.13;;;11.40;99.90;;;;;;5009666;28;20120;-76
2022/11/08 13:22:31;;;;;;;46.70;31.20;;;11.40;99.90;;;;;;5009655;28;20117;-77
2022/11/08 13:25:23;;;;;;;44.35;30.65;;;11.40;99.90;;;;;;5035540;28;20083;-77
2022/11/08 13:27:49;;;;;;;39.38;27.55;;;11.40;99.90;;;;;;5046861;28;20029;-77
2022/11/08 13:30:15;;;;;;;;;;;11.30;99.90;;;;;;5029684;28;20393;-77
2022/11/08 13:33:13;;;;;;;37.85;26.98;;;11.30;99.90;;;;;;5028908;28;19944;-78